sensor_id;sensor_type;location;lat;lon;timestamp;P1;durP1;ratioP1;P2;durP2;ratioP2
57593;SDS011;43423;46.510;6.686;2022-11-09T00:00:39;4.53;;;2.05;;
57593;SDS011;43423;46.510;6.686;2022-11-09T00:03:05;2.55;;;1.60;;
57593;SDS011;43423;46.510;6.686;2022-11-09T00:05:32;2.67;;;1.60;;
57593;SDS011;43423;46.510;6.686;2022-11-09T00:07:57;3.22;;;1.63;;
57593;SDS011;43423;46.510;6.686;2022-11-09T00:10:23;2.78;;;2.00;;
57593;SDS011;43423;46.510;6.686;2022-11-09T00:12:49;3.33;;;1.50;;
57593;SDS011;43423;46.510;6.686;2022-11-09T00:15:15;3.88;;;1.63;;
57593;SDS011;43423;46.510;6.686;2022-11-09T00:17:41;3.45;;;1.88;;
57593;SDS011;43423;46.510;6.686;2022-11-09T00:20:07;4.50;;;2.10;;
57593;SDS011;43423;46.510;6.686;2022-11-09T00:22:33;2.10;;;1.35;;
57593;SDS011;43423;46.510;6.686;2022-11-09T00:24:59;5.63;;;2.00;;
57593;SDS011;43423;46.510;6.686;2022-11-09T00:27:25;3.30;;;1.80;;
57593;SDS011;43423;46.510;6.686;2022-11-09T00:29:52;6.95;;;1.88;;
57593;SDS011;43423;46.510;6.686;2022-11-09T00:32:17;4.47;;;2.05;;
57593;SDS011;43423;46.510;6.686;2022-11-09T00:34:46;5.75;;;1.80;;
57593;SDS011;43423;46.510;6.686;2022-11-09T00:37:11;3.05;;;1.52;;
57593;SDS011;43423;46.510;6.686;2022-11-09T00:39:37;2.45;;;1.60;;
57593;SDS011;43423;46.510;6.686;2022-11-09T00:42:03;2.22;;;1.40;;
57593;SDS011;43423;46.510;6.686;2022-11-09T00:44:29;6.65;;;1.60;;
57593;SDS011;43423;46.510;6.686;2022-11-09T00:46:55;2.33;;;2.03;;
57593;SDS011;43423;46.510;6.686;2022-11-09T00:49:21;1.88;;;1.58;;
57593;SDS011;43423;46.510;6.686;2022-11-09T00:51:46;3.83;;;1.30;;
57593;SDS011;43423;46.510;6.686;2022-11-09T00:54:13;2.78;;;1.80;;
57593;SDS011;43423;46.510;6.686;2022-11-09T00:56:39;2.85;;;1.55;;
57593;SDS011;43423;46.510;6.686;2022-11-09T00:59:05;2.60;;;1.40;;
57593;SDS011;43423;46.510;6.686;2022-11-09T01:01:31;2.83;;;1.35;;
57593;SDS011;43423;46.510;6.686;2022-11-09T01:03:57;2.45;;;1.48;;
57593;SDS011;43423;46.510;6.686;2022-11-09T01:06:23;2.70;;;1.30;;
57593;SDS011;43423;46.510;6.686;2022-11-09T01:08:51;2.20;;;1.35;;
57593;SDS011;43423;46.510;6.686;2022-11-09T01:11:17;4.03;;;1.52;;
57593;SDS011;43423;46.510;6.686;2022-11-09T01:13:44;2.30;;;1.77;;
57593;SDS011;43423;46.510;6.686;2022-11-09T01:16:12;2.92;;;1.65;;
57593;SDS011;43423;46.510;6.686;2022-11-09T01:18:39;6.82;;;1.63;;
57593;SDS011;43423;46.510;6.686;2022-11-09T01:21:05;4.50;;;1.75;;
57593;SDS011;43423;46.510;6.686;2022-11-09T01:23:32;3.00;;;1.40;;
57593;SDS011;43423;46.510;6.686;2022-11-09T01:25:58;2.30;;;1.50;;
57593;SDS011;43423;46.510;6.686;2022-11-09T01:28:26;3.67;;;1.63;;
57593;SDS011;43423;46.510;6.686;2022-11-09T01:30:52;2.17;;;1.40;;
57593;SDS011;43423;46.510;6.686;2022-11-09T01:33:19;3.90;;;1.55;;
57593;SDS011;43423;46.510;6.686;2022-11-09T01:35:44;7.18;;;1.73;;
57593;SDS011;43423;46.510;6.686;2022-11-09T01:38:11;2.53;;;1.50;;
57593;SDS011;43423;46.510;6.686;2022-11-09T01:40:37;4.95;;;1.40;;
57593;SDS011;43423;46.510;6.686;2022-11-09T01:43:15;4.40;;;1.73;;
57593;SDS011;43423;46.510;6.686;2022-11-09T01:45:45;4.35;;;2.42;;
57593;SDS011;43423;46.510;6.686;2022-11-09T01:50:56;2.17;;;1.27;;
57593;SDS011;43423;46.510;6.686;2022-11-09T01:53:29;1.83;;;1.42;;
57593;SDS011;43423;46.510;6.686;2022-11-09T01:55:58;1.85;;;1.20;;
57593;SDS011;43423;46.510;6.686;2022-11-09T01:58:33;4.03;;;1.50;;
57593;SDS011;43423;46.510;6.686;2022-11-09T02:01:05;2.72;;;1.50;;
57593;SDS011;43423;46.510;6.686;2022-11-09T02:03:39;2.15;;;1.60;;
57593;SDS011;43423;46.510;6.686;2022-11-09T02:06:13;2.47;;;1.27;;
57593;SDS011;43423;46.510;6.686;2022-11-09T02:08:41;3.15;;;1.45;;
57593;SDS011;43423;46.510;6.686;2022-11-09T02:11:09;3.38;;;1.63;;
57593;SDS011;43423;46.510;6.686;2022-11-09T02:13:37;3.58;;;1.30;;
57593;SDS011;43423;46.510;6.686;2022-11-09T02:16:07;4.50;;;1.42;;
57593;SDS011;43423;46.510;6.686;2022-11-09T02:18:35;2.35;;;1.40;;
57593;SDS011;43423;46.510;6.686;2022-11-09T02:21:07;2.60;;;1.65;;
57593;SDS011;43423;46.510;6.686;2022-11-09T02:23:33;4.35;;;1.80;;
57593;SDS011;43423;46.510;6.686;2022-11-09T02:26:09;3.92;;;1.77;;
57593;SDS011;43423;46.510;6.686;2022-11-09T02:28:40;2.53;;;1.92;;
57593;SDS011;43423;46.510;6.686;2022-11-09T02:31:07;3.47;;;1.73;;
57593;SDS011;43423;46.510;6.686;2022-11-09T02:36:09;4.88;;;1.77;;
57593;SDS011;43423;46.510;6.686;2022-11-09T02:38:35;3.33;;;2.33;;
57593;SDS011;43423;46.510;6.686;2022-11-09T02:41:01;2.38;;;1.88;;
57593;SDS011;43423;46.510;6.686;2022-11-09T02:43:27;3.13;;;1.83;;
57593;SDS011;43423;46.510;6.686;2022-11-09T02:45:52;4.13;;;2.03;;
57593;SDS011;43423;46.510;6.686;2022-11-09T02:48:18;2.67;;;1.90;;
57593;SDS011;43423;46.510;6.686;2022-11-09T02:50:44;5.35;;;2.70;;
57593;SDS011;43423;46.510;6.686;2022-11-09T02:53:10;7.38;;;2.03;;
57593;SDS011;43423;46.510;6.686;2022-11-09T02:55:36;4.80;;;2.20;;
57593;SDS011;43423;46.510;6.686;2022-11-09T02:58:02;2.92;;;1.85;;
57593;SDS011;43423;46.510;6.686;2022-11-09T03:00:27;4.47;;;2.15;;
57593;SDS011;43423;46.510;6.686;2022-11-09T03:02:54;5.15;;;2.10;;
57593;SDS011;43423;46.510;6.686;2022-11-09T03:05:19;5.00;;;1.60;;
57593;SDS011;43423;46.510;6.686;2022-11-09T03:07:45;3.50;;;1.90;;
57593;SDS011;43423;46.510;6.686;2022-11-09T03:10:11;3.53;;;2.10;;
57593;SDS011;43423;46.510;6.686;2022-11-09T03:12:37;5.13;;;2.05;;
57593;SDS011;43423;46.510;6.686;2022-11-09T03:15:04;3.97;;;2.10;;
57593;SDS011;43423;46.510;6.686;2022-11-09T03:17:32;5.95;;;1.90;;
57593;SDS011;43423;46.510;6.686;2022-11-09T03:19:59;3.45;;;2.28;;
57593;SDS011;43423;46.510;6.686;2022-11-09T03:22:27;6.30;;;2.20;;
57593;SDS011;43423;46.510;6.686;2022-11-09T03:24:55;7.22;;;2.30;;
57593;SDS011;43423;46.510;6.686;2022-11-09T03:27:21;6.43;;;2.47;;
57593;SDS011;43423;46.510;6.686;2022-11-09T03:29:47;3.38;;;2.00;;
57593;SDS011;43423;46.510;6.686;2022-11-09T03:32:13;10.38;;;2.45;;
57593;SDS011;43423;46.510;6.686;2022-11-09T03:34:39;4.88;;;2.20;;
57593;SDS011;43423;46.510;6.686;2022-11-09T03:37:05;6.07;;;3.13;;
57593;SDS011;43423;46.510;6.686;2022-11-09T03:39:31;4.55;;;2.15;;
57593;SDS011;43423;46.510;6.686;2022-11-09T03:41:58;3.85;;;2.20;;
57593;SDS011;43423;46.510;6.686;2022-11-09T03:44:26;5.18;;;2.25;;
57593;SDS011;43423;46.510;6.686;2022-11-09T03:46:52;9.02;;;2.70;;
57593;SDS011;43423;46.510;6.686;2022-11-09T03:49:18;5.63;;;2.30;;
57593;SDS011;43423;46.510;6.686;2022-11-09T03:51:44;4.00;;;2.30;;
57593;SDS011;43423;46.510;6.686;2022-11-09T03:54:10;6.40;;;2.50;;
57593;SDS011;43423;46.510;6.686;2022-11-09T03:56:38;5.72;;;2.13;;
57593;SDS011;43423;46.510;6.686;2022-11-09T03:59:04;5.63;;;2.40;;
57593;SDS011;43423;46.510;6.686;2022-11-09T04:01:30;6.65;;;2.30;;
57593;SDS011;43423;46.510;6.686;2022-11-09T04:03:56;5.35;;;2.13;;
57593;SDS011;43423;46.510;6.686;2022-11-09T04:06:21;5.70;;;2.65;;
57593;SDS011;43423;46.510;6.686;2022-11-09T04:08:47;9.68;;;2.80;;
57593;SDS011;43423;46.510;6.686;2022-11-09T04:11:14;6.22;;;2.85;;
57593;SDS011;43423;46.510;6.686;2022-11-09T04:13:39;7.25;;;2.85;;
57593;SDS011;43423;46.510;6.686;2022-11-09T04:16:06;4.63;;;2.40;;
57593;SDS011;43423;46.510;6.686;2022-11-09T04:18:35;7.25;;;3.00;;
57593;SDS011;43423;46.510;6.686;2022-11-09T04:21:01;6.03;;;2.40;;
57593;SDS011;43423;46.510;6.686;2022-11-09T04:23:27;5.00;;;2.25;;
57593;SDS011;43423;46.510;6.686;2022-11-09T04:25:53;7.43;;;2.65;;
57593;SDS011;43423;46.510;6.686;2022-11-09T04:28:19;5.78;;;2.60;;
57593;SDS011;43423;46.510;6.686;2022-11-09T04:30:47;5.03;;;2.33;;
57593;SDS011;43423;46.510;6.686;2022-11-09T04:33:12;9.77;;;3.33;;
57593;SDS011;43423;46.510;6.686;2022-11-09T04:35:39;5.07;;;2.38;;
57593;SDS011;43423;46.510;6.686;2022-11-09T04:38:09;6.40;;;2.42;;
57593;SDS011;43423;46.510;6.686;2022-11-09T04:40:37;5.90;;;2.40;;
57593;SDS011;43423;46.510;6.686;2022-11-09T04:43:04;7.38;;;2.80;;
57593;SDS011;43423;46.510;6.686;2022-11-09T04:45:32;4.22;;;2.65;;
57593;SDS011;43423;46.510;6.686;2022-11-09T04:47:59;4.65;;;2.53;;
57593;SDS011;43423;46.510;6.686;2022-11-09T04:50:28;6.03;;;2.83;;
57593;SDS011;43423;46.510;6.686;2022-11-09T04:52:54;7.53;;;2.58;;
57593;SDS011;43423;46.510;6.686;2022-11-09T04:55:20;4.78;;;2.30;;
57593;SDS011;43423;46.510;6.686;2022-11-09T04:57:46;6.78;;;2.53;;
57593;SDS011;43423;46.510;6.686;2022-11-09T05:00:12;4.75;;;2.72;;
57593;SDS011;43423;46.510;6.686;2022-11-09T05:02:38;4.63;;;2.40;;
57593;SDS011;43423;46.510;6.686;2022-11-09T05:05:04;4.65;;;2.05;;
57593;SDS011;43423;46.510;6.686;2022-11-09T05:07:30;7.78;;;2.80;;
57593;SDS011;43423;46.510;6.686;2022-11-09T05:09:56;7.38;;;2.85;;
57593;SDS011;43423;46.510;6.686;2022-11-09T05:12:22;3.33;;;2.08;;
57593;SDS011;43423;46.510;6.686;2022-11-09T05:14:48;6.53;;;2.50;;
57593;SDS011;43423;46.510;6.686;2022-11-09T05:17:13;6.60;;;2.47;;
57593;SDS011;43423;46.510;6.686;2022-11-09T05:19:39;4.65;;;2.70;;
57593;SDS011;43423;46.510;6.686;2022-11-09T05:22:05;5.32;;;3.03;;
57593;SDS011;43423;46.510;6.686;2022-11-09T05:24:49;4.57;;;2.05;;
57593;SDS011;43423;46.510;6.686;2022-11-09T05:27:19;5.38;;;2.38;;
57593;SDS011;43423;46.510;6.686;2022-11-09T05:29:45;6.22;;;2.80;;
57593;SDS011;43423;46.510;6.686;2022-11-09T05:32:10;4.80;;;2.67;;
57593;SDS011;43423;46.510;6.686;2022-11-09T05:34:36;7.28;;;2.63;;
57593;SDS011;43423;46.510;6.686;2022-11-09T05:37:02;6.00;;;2.63;;
57593;SDS011;43423;46.510;6.686;2022-11-09T05:39:28;4.10;;;2.40;;
57593;SDS011;43423;46.510;6.686;2022-11-09T05:41:54;8.43;;;2.53;;
57593;SDS011;43423;46.510;6.686;2022-11-09T05:44:19;3.17;;;2.55;;
57593;SDS011;43423;46.510;6.686;2022-11-09T05:46:45;6.25;;;2.65;;
57593;SDS011;43423;46.510;6.686;2022-11-09T05:49:11;4.45;;;2.42;;
57593;SDS011;43423;46.510;6.686;2022-11-09T05:51:37;8.07;;;2.55;;
57593;SDS011;43423;46.510;6.686;2022-11-09T05:54:03;6.28;;;2.63;;
57593;SDS011;43423;46.510;6.686;2022-11-09T05:56:29;6.40;;;2.75;;
57593;SDS011;43423;46.510;6.686;2022-11-09T05:58:58;5.75;;;2.63;;
57593;SDS011;43423;46.510;6.686;2022-11-09T06:01:27;3.72;;;2.75;;
57593;SDS011;43423;46.510;6.686;2022-11-09T06:03:53;4.53;;;2.80;;
57593;SDS011;43423;46.510;6.686;2022-11-09T06:06:21;7.13;;;2.67;;
57593;SDS011;43423;46.510;6.686;2022-11-09T06:08:47;4.07;;;2.88;;
57593;SDS011;43423;46.510;6.686;2022-11-09T06:11:14;5.88;;;2.50;;
57593;SDS011;43423;46.510;6.686;2022-11-09T06:13:41;4.75;;;3.10;;
57593;SDS011;43423;46.510;6.686;2022-11-09T06:16:08;5.47;;;3.13;;
57593;SDS011;43423;46.510;6.686;2022-11-09T06:18:36;6.28;;;2.95;;
57593;SDS011;43423;46.510;6.686;2022-11-09T06:21:03;4.53;;;2.95;;
57593;SDS011;43423;46.510;6.686;2022-11-09T06:23:30;4.60;;;2.20;;
57593;SDS011;43423;46.510;6.686;2022-11-09T06:25:57;3.97;;;2.13;;
57593;SDS011;43423;46.510;6.686;2022-11-09T06:28:41;4.10;;;2.05;;
57593;SDS011;43423;46.510;6.686;2022-11-09T06:31:08;3.03;;;2.40;;
57593;SDS011;43423;46.510;6.686;2022-11-09T06:33:37;3.63;;;1.80;;
57593;SDS011;43423;46.510;6.686;2022-11-09T06:36:03;2.38;;;1.92;;
57593;SDS011;43423;46.510;6.686;2022-11-09T06:38:29;4.03;;;2.08;;
57593;SDS011;43423;46.510;6.686;2022-11-09T06:40:58;2.95;;;2.10;;
57593;SDS011;43423;46.510;6.686;2022-11-09T06:43:25;4.50;;;1.60;;
57593;SDS011;43423;46.510;6.686;2022-11-09T06:45:53;5.80;;;1.80;;
57593;SDS011;43423;46.510;6.686;2022-11-09T06:48:22;3.38;;;1.95;;
57593;SDS011;43423;46.510;6.686;2022-11-09T06:50:48;3.17;;;1.88;;
57593;SDS011;43423;46.510;6.686;2022-11-09T06:53:15;1.88;;;1.60;;
57593;SDS011;43423;46.510;6.686;2022-11-09T06:55:42;3.72;;;1.73;;
57593;SDS011;43423;46.510;6.686;2022-11-09T06:58:14;1.80;;;1.40;;
57593;SDS011;43423;46.510;6.686;2022-11-09T07:00:42;5.00;;;1.50;;
57593;SDS011;43423;46.510;6.686;2022-11-09T07:03:13;2.80;;;1.67;;
57593;SDS011;43423;46.510;6.686;2022-11-09T07:05:42;5.78;;;1.33;;
57593;SDS011;43423;46.510;6.686;2022-11-09T07:08:09;2.40;;;1.50;;
57593;SDS011;43423;46.510;6.686;2022-11-09T07:10:35;2.83;;;1.52;;
57593;SDS011;43423;46.510;6.686;2022-11-09T07:13:02;5.18;;;2.13;;
57593;SDS011;43423;46.510;6.686;2022-11-09T07:15:29;2.20;;;1.45;;
57593;SDS011;43423;46.510;6.686;2022-11-09T07:17:56;2.45;;;1.80;;
57593;SDS011;43423;46.510;6.686;2022-11-09T07:20:25;2.97;;;2.00;;
57593;SDS011;43423;46.510;6.686;2022-11-09T07:22:52;3.90;;;1.52;;
57593;SDS011;43423;46.510;6.686;2022-11-09T07:25:18;3.28;;;1.85;;
57593;SDS011;43423;46.510;6.686;2022-11-09T07:27:44;3.10;;;1.60;;
57593;SDS011;43423;46.510;6.686;2022-11-09T07:30:10;2.75;;;1.70;;
57593;SDS011;43423;46.510;6.686;2022-11-09T07:32:37;3.63;;;1.83;;
57593;SDS011;43423;46.510;6.686;2022-11-09T07:35:04;3.08;;;2.00;;
57593;SDS011;43423;46.510;6.686;2022-11-09T07:37:31;3.10;;;2.03;;
57593;SDS011;43423;46.510;6.686;2022-11-09T07:39:57;2.75;;;1.40;;
57593;SDS011;43423;46.510;6.686;2022-11-09T07:42:23;3.05;;;1.40;;
57593;SDS011;43423;46.510;6.686;2022-11-09T07:44:52;1.65;;;1.40;;
57593;SDS011;43423;46.510;6.686;2022-11-09T07:47:18;3.80;;;2.38;;
57593;SDS011;43423;46.510;6.686;2022-11-09T07:49:44;3.42;;;1.55;;
57593;SDS011;43423;46.510;6.686;2022-11-09T07:52:11;3.80;;;1.80;;
57593;SDS011;43423;46.510;6.686;2022-11-09T07:54:39;2.42;;;1.52;;
57593;SDS011;43423;46.510;6.686;2022-11-09T07:57:05;1.20;;;1.10;;
57593;SDS011;43423;46.510;6.686;2022-11-09T07:59:31;2.55;;;1.48;;
57593;SDS011;43423;46.510;6.686;2022-11-09T08:01:57;2.85;;;1.63;;
57593;SDS011;43423;46.510;6.686;2022-11-09T08:04:23;1.50;;;1.20;;
57593;SDS011;43423;46.510;6.686;2022-11-09T08:06:52;2.08;;;1.67;;
57593;SDS011;43423;46.510;6.686;2022-11-09T08:09:18;2.90;;;2.42;;
57593;SDS011;43423;46.510;6.686;2022-11-09T08:11:45;2.47;;;2.03;;
57593;SDS011;43423;46.510;6.686;2022-11-09T08:14:11;3.85;;;2.35;;
57593;SDS011;43423;46.510;6.686;2022-11-09T08:16:37;1.83;;;1.58;;
57593;SDS011;43423;46.510;6.686;2022-11-09T08:19:03;1.70;;;1.60;;
57593;SDS011;43423;46.510;6.686;2022-11-09T08:21:29;1.42;;;1.30;;
57593;SDS011;43423;46.510;6.686;2022-11-09T08:23:55;2.38;;;1.08;;
57593;SDS011;43423;46.510;6.686;2022-11-09T08:26:21;2.63;;;1.20;;
57593;SDS011;43423;46.510;6.686;2022-11-09T08:28:47;2.22;;;0.95;;
57593;SDS011;43423;46.510;6.686;2022-11-09T08:31:14;1.25;;;1.02;;
57593;SDS011;43423;46.510;6.686;2022-11-09T08:33:40;2.15;;;1.15;;
57593;SDS011;43423;46.510;6.686;2022-11-09T08:36:07;3.90;;;1.17;;
57593;SDS011;43423;46.510;6.686;2022-11-09T08:38:37;2.13;;;1.05;;
57593;SDS011;43423;46.510;6.686;2022-11-09T08:41:03;1.23;;;0.90;;
57593;SDS011;43423;46.510;6.686;2022-11-09T08:43:30;1.40;;;1.00;;
57593;SDS011;43423;46.510;6.686;2022-11-09T08:45:56;3.40;;;1.30;;
57593;SDS011;43423;46.510;6.686;2022-11-09T08:48:21;1.90;;;1.00;;
57593;SDS011;43423;46.510;6.686;2022-11-09T08:50:51;1.13;;;0.95;;
57593;SDS011;43423;46.510;6.686;2022-11-09T08:53:19;1.80;;;1.10;;
57593;SDS011;43423;46.510;6.686;2022-11-09T08:55:46;5.65;;;1.20;;
57593;SDS011;43423;46.510;6.686;2022-11-09T08:58:11;2.15;;;1.45;;
57593;SDS011;43423;46.510;6.686;2022-11-09T09:00:38;5.25;;;1.02;;
57593;SDS011;43423;46.510;6.686;2022-11-09T09:03:04;2.22;;;1.30;;
57593;SDS011;43423;46.510;6.686;2022-11-09T09:05:31;2.28;;;1.48;;
57593;SDS011;43423;46.510;6.686;2022-11-09T09:08:00;1.45;;;1.25;;
57593;SDS011;43423;46.510;6.686;2022-11-09T09:10:27;1.75;;;1.23;;
57593;SDS011;43423;46.510;6.686;2022-11-09T09:12:53;2.50;;;1.73;;
57593;SDS011;43423;46.510;6.686;2022-11-09T09:15:21;5.68;;;1.92;;
57593;SDS011;43423;46.510;6.686;2022-11-09T09:17:47;3.08;;;1.40;;
57593;SDS011;43423;46.510;6.686;2022-11-09T09:20:13;1.25;;;0.95;;
57593;SDS011;43423;46.510;6.686;2022-11-09T09:22:45;2.10;;;1.33;;
57593;SDS011;43423;46.510;6.686;2022-11-09T09:25:11;2.53;;;1.65;;
57593;SDS011;43423;46.510;6.686;2022-11-09T09:27:37;2.20;;;1.30;;
57593;SDS011;43423;46.510;6.686;2022-11-09T09:30:03;4.47;;;2.30;;
57593;SDS011;43423;46.510;6.686;2022-11-09T09:32:30;6.72;;;1.70;;
57593;SDS011;43423;46.510;6.686;2022-11-09T09:34:56;6.65;;;1.90;;
57593;SDS011;43423;46.510;6.686;2022-11-09T09:37:22;4.18;;;1.80;;
57593;SDS011;43423;46.510;6.686;2022-11-09T09:39:48;3.42;;;1.33;;
57593;SDS011;43423;46.510;6.686;2022-11-09T09:42:27;2.95;;;1.60;;
57593;SDS011;43423;46.510;6.686;2022-11-09T09:45:09;4.35;;;1.40;;
57593;SDS011;43423;46.510;6.686;2022-11-09T09:50:23;3.17;;;1.30;;
57593;SDS011;43423;46.510;6.686;2022-11-09T09:53:18;3.00;;;2.58;;
57593;SDS011;43423;46.510;6.686;2022-11-09T09:56:02;4.78;;;1.70;;
57593;SDS011;43423;46.510;6.686;2022-11-09T09:58:33;4.63;;;2.00;;
57593;SDS011;43423;46.510;6.686;2022-11-09T10:01:10;2.70;;;1.77;;
57593;SDS011;43423;46.510;6.686;2022-11-09T10:03:40;5.18;;;1.95;;
57593;SDS011;43423;46.510;6.686;2022-11-09T10:11:48;1.45;;;1.23;;
57593;SDS011;43423;46.510;6.686;2022-11-09T10:15:11;3.80;;;1.90;;
57593;SDS011;43423;46.510;6.686;2022-11-09T10:25:59;4.30;;;2.00;;
57593;SDS011;43423;46.510;6.686;2022-11-09T10:28:28;4.80;;;1.70;;
57593;SDS011;43423;46.510;6.686;2022-11-09T10:30:55;3.88;;;1.70;;
57593;SDS011;43423;46.510;6.686;2022-11-09T10:33:23;8.55;;;1.77;;
57593;SDS011;43423;46.510;6.686;2022-11-09T10:35:54;2.25;;;1.67;;
57593;SDS011;43423;46.510;6.686;2022-11-09T10:38:43;2.35;;;1.58;;
57593;SDS011;43423;46.510;6.686;2022-11-09T10:41:22;3.42;;;1.67;;
57593;SDS011;43423;46.510;6.686;2022-11-09T10:43:52;6.22;;;1.77;;
57593;SDS011;43423;46.510;6.686;2022-11-09T10:46:17;7.18;;;2.08;;
57593;SDS011;43423;46.510;6.686;2022-11-09T10:48:45;7.13;;;3.90;;
57593;SDS011;43423;46.510;6.686;2022-11-09T10:54:13;4.03;;;2.55;;
57593;SDS011;43423;46.510;6.686;2022-11-09T10:56:44;6.47;;;2.95;;
57593;SDS011;43423;46.510;6.686;2022-11-09T11:04:50;3.20;;;2.13;;
57593;SDS011;43423;46.510;6.686;2022-11-09T11:07:31;4.07;;;2.58;;
57593;SDS011;43423;46.510;6.686;2022-11-09T11:10:09;4.97;;;2.53;;
57593;SDS011;43423;46.510;6.686;2022-11-09T11:12:41;5.60;;;2.42;;
57593;SDS011;43423;46.510;6.686;2022-11-09T11:15:37;6.72;;;4.60;;
57593;SDS011;43423;46.510;6.686;2022-11-09T11:18:10;7.80;;;3.55;;
57593;SDS011;43423;46.510;6.686;2022-11-09T11:20:39;4.18;;;2.53;;
57593;SDS011;43423;46.510;6.686;2022-11-09T11:23:15;2.53;;;2.03;;
57593;SDS011;43423;46.510;6.686;2022-11-09T11:25:57;3.65;;;1.95;;
57593;SDS011;43423;46.510;6.686;2022-11-09T11:28:37;3.38;;;1.83;;
57593;SDS011;43423;46.510;6.686;2022-11-09T11:31:10;4.30;;;2.03;;
57593;SDS011;43423;46.510;6.686;2022-11-09T11:33:38;2.65;;;2.00;;
57593;SDS011;43423;46.510;6.686;2022-11-09T11:36:07;2.95;;;1.77;;
57593;SDS011;43423;46.510;6.686;2022-11-09T11:38:55;3.38;;;1.92;;
57593;SDS011;43423;46.510;6.686;2022-11-09T11:44:02;5.10;;;1.98;;
57593;SDS011;43423;46.510;6.686;2022-11-09T11:52:32;7.43;;;3.95;;
57593;SDS011;43423;46.510;6.686;2022-11-09T12:02:46;9.35;;;5.60;;
57593;SDS011;43423;46.510;6.686;2022-11-09T12:05:27;6.75;;;4.38;;
57593;SDS011;43423;46.510;6.686;2022-11-09T12:08:11;7.47;;;3.80;;
57593;SDS011;43423;46.510;6.686;2022-11-09T12:10:53;9.43;;;6.20;;
57593;SDS011;43423;46.510;6.686;2022-11-09T12:16:18;6.53;;;3.28;;
57593;SDS011;43423;46.510;6.686;2022-11-09T12:22:07;5.43;;;3.25;;
57593;SDS011;43423;46.510;6.686;2022-11-09T12:27:38;4.53;;;2.92;;
57593;SDS011;43423;46.510;6.686;2022-11-09T12:30:21;9.43;;;3.13;;
57593;SDS011;43423;46.510;6.686;2022-11-09T12:33:07;7.15;;;3.17;;
57593;SDS011;43423;46.510;6.686;2022-11-09T12:35:48;6.80;;;3.55;;
57593;SDS011;43423;46.510;6.686;2022-11-09T12:38:22;7.40;;;3.60;;
57593;SDS011;43423;46.510;6.686;2022-11-09T12:41:07;9.45;;;3.45;;
57593;SDS011;43423;46.510;6.686;2022-11-09T12:46:10;7.38;;;4.00;;
57593;SDS011;43423;46.510;6.686;2022-11-09T12:48:44;7.90;;;3.58;;
57593;SDS011;43423;46.510;6.686;2022-11-09T12:51:11;5.63;;;3.10;;
57593;SDS011;43423;46.510;6.686;2022-11-09T12:53:39;5.78;;;2.75;;
57593;SDS011;43423;46.510;6.686;2022-11-09T12:56:19;7.00;;;3.40;;
57593;SDS011;43423;46.510;6.686;2022-11-09T12:59:12;5.82;;;3.80;;
57593;SDS011;43423;46.510;6.686;2022-11-09T13:01:52;10.02;;;3.55;;
57593;SDS011;43423;46.510;6.686;2022-11-09T13:04:21;7.07;;;3.90;;
57593;SDS011;43423;46.510;6.686;2022-11-09T13:07:14;4.20;;;3.17;;
57593;SDS011;43423;46.510;6.686;2022-11-09T13:09:53;8.50;;;3.55;;
57593;SDS011;43423;46.510;6.686;2022-11-09T13:14:57;7.30;;;3.08;;
57593;SDS011;43423;46.510;6.686;2022-11-09T13:20:36;6.80;;;2.88;;
57593;SDS011;43423;46.510;6.686;2022-11-09T13:23:07;6.68;;;3.25;;
57593;SDS011;43423;46.510;6.686;2022-11-09T13:25:51;4.82;;;2.92;;
57593;SDS011;43423;46.510;6.686;2022-11-09T13:30:56;7.32;;;3.40;;
57593;SDS011;43423;46.510;6.686;2022-11-09T13:33:31;4.65;;;3.20;;
57593;SDS011;43423;46.510;6.686;2022-11-09T13:35:58;7.90;;;3.42;;
57593;SDS011;43423;46.510;6.686;2022-11-09T13:38:28;5.90;;;3.10;;
57593;SDS011;43423;46.510;6.686;2022-11-09T13:40:58;4.55;;;3.25;;
57593;SDS011;43423;46.510;6.686;2022-11-09T13:45:57;3.85;;;2.60;;
57593;SDS011;43423;46.510;6.686;2022-11-09T13:51:37;4.95;;;2.35;;
57593;SDS011;43423;46.510;6.686;2022-11-09T13:54:27;5.03;;;2.60;;
57593;SDS011;43423;46.510;6.686;2022-11-09T13:56:53;4.78;;;2.45;;
57593;SDS011;43423;46.510;6.686;2022-11-09T14:01:58;5.40;;;2.45;;
57593;SDS011;43423;46.510;6.686;2022-11-09T14:04:35;4.28;;;2.55;;
57593;SDS011;43423;46.510;6.686;2022-11-09T14:07:11;7.32;;;3.13;;
57593;SDS011;43423;46.510;6.686;2022-11-09T14:12:56;5.97;;;2.95;;
57593;SDS011;43423;46.510;6.686;2022-11-09T14:23:42;4.55;;;3.20;;
57593;SDS011;43423;46.510;6.686;2022-11-09T14:26:14;7.13;;;3.88;;
57593;SDS011;43423;46.510;6.686;2022-11-09T14:28:44;8.38;;;3.70;;
57593;SDS011;43423;46.510;6.686;2022-11-09T14:31:28;4.70;;;3.38;;
57593;SDS011;43423;46.510;6.686;2022-11-09T14:34:01;5.95;;;3.70;;
57593;SDS011;43423;46.510;6.686;2022-11-09T14:36:29;7.25;;;3.58;;
57593;SDS011;43423;46.510;6.686;2022-11-09T14:39:02;5.90;;;3.20;;
57593;SDS011;43423;46.510;6.686;2022-11-09T14:41:29;6.30;;;4.35;;
57593;SDS011;43423;46.510;6.686;2022-11-09T14:43:58;7.18;;;4.30;;
57593;SDS011;43423;46.510;6.686;2022-11-09T14:46:26;6.78;;;3.83;;
57593;SDS011;43423;46.510;6.686;2022-11-09T14:48:55;9.52;;;5.40;;
57593;SDS011;43423;46.510;6.686;2022-11-09T14:51:30;7.22;;;4.13;;
57593;SDS011;43423;46.510;6.686;2022-11-09T14:53:58;7.50;;;4.22;;
57593;SDS011;43423;46.510;6.686;2022-11-09T14:56:25;7.88;;;4.25;;
57593;SDS011;43423;46.510;6.686;2022-11-09T14:58:53;6.90;;;3.53;;
57593;SDS011;43423;46.510;6.686;2022-11-09T15:01:23;7.90;;;3.22;;
57593;SDS011;43423;46.510;6.686;2022-11-09T15:04:11;4.68;;;3.42;;
57593;SDS011;43423;46.510;6.686;2022-11-09T15:06:46;7.00;;;3.15;;
57593;SDS011;43423;46.510;6.686;2022-11-09T15:09:19;6.13;;;2.75;;
57593;SDS011;43423;46.510;6.686;2022-11-09T15:11:48;4.55;;;2.38;;
57593;SDS011;43423;46.510;6.686;2022-11-09T15:16:45;7.40;;;3.42;;
57593;SDS011;43423;46.510;6.686;2022-11-09T15:19:22;10.95;;;3.30;;
57593;SDS011;43423;46.510;6.686;2022-11-09T15:21:50;6.57;;;3.72;;
57593;SDS011;43423;46.510;6.686;2022-11-09T15:24:17;6.25;;;2.95;;
57593;SDS011;43423;46.510;6.686;2022-11-09T15:26:45;6.07;;;3.97;;
57593;SDS011;43423;46.510;6.686;2022-11-09T15:29:34;6.72;;;3.67;;
57593;SDS011;43423;46.510;6.686;2022-11-09T15:34:36;4.47;;;3.15;;
57593;SDS011;43423;46.510;6.686;2022-11-09T15:37:24;5.40;;;3.55;;
57593;SDS011;43423;46.510;6.686;2022-11-09T15:40:13;6.30;;;2.90;;
57593;SDS011;43423;46.510;6.686;2022-11-09T15:42:41;4.57;;;2.95;;
57593;SDS011;43423;46.510;6.686;2022-11-09T15:45:11;6.57;;;3.45;;
57593;SDS011;43423;46.510;6.686;2022-11-09T15:47:39;7.65;;;4.28;;
57593;SDS011;43423;46.510;6.686;2022-11-09T15:50:06;6.10;;;4.28;;
57593;SDS011;43423;46.510;6.686;2022-11-09T15:52:40;13.02;;;6.47;;
57593;SDS011;43423;46.510;6.686;2022-11-09T15:55:15;11.35;;;5.88;;
57593;SDS011;43423;46.510;6.686;2022-11-09T15:57:47;6.65;;;3.55;;
57593;SDS011;43423;46.510;6.686;2022-11-09T16:00:18;7.95;;;4.85;;
57593;SDS011;43423;46.510;6.686;2022-11-09T16:02:47;6.35;;;4.47;;
57593;SDS011;43423;46.510;6.686;2022-11-09T16:05:13;6.38;;;4.03;;
57593;SDS011;43423;46.510;6.686;2022-11-09T16:07:48;8.80;;;3.75;;
57593;SDS011;43423;46.510;6.686;2022-11-09T16:10:18;4.07;;;2.70;;
57593;SDS011;43423;46.510;6.686;2022-11-09T16:12:47;4.50;;;2.60;;
57593;SDS011;43423;46.510;6.686;2022-11-09T16:15:13;4.03;;;2.10;;
57593;SDS011;43423;46.510;6.686;2022-11-09T16:17:52;2.78;;;1.67;;
57593;SDS011;43423;46.510;6.686;2022-11-09T16:20:18;2.88;;;1.98;;
57593;SDS011;43423;46.510;6.686;2022-11-09T16:22:47;3.28;;;2.10;;
57593;SDS011;43423;46.510;6.686;2022-11-09T16:25:13;3.55;;;2.05;;
57593;SDS011;43423;46.510;6.686;2022-11-09T16:27:43;3.65;;;2.15;;
57593;SDS011;43423;46.510;6.686;2022-11-09T16:30:12;4.78;;;2.40;;
57593;SDS011;43423;46.510;6.686;2022-11-09T16:32:38;6.22;;;3.38;;